sensor_id;sensor_type;location;lat;lon;timestamp;P1;durP1;ratioP1;P2;durP2;ratioP2
17482;SDS011;8858;52.308;20.994;2023-01-28T00:01:40;32.60;;;22.47;;
17482;SDS011;8858;52.308;20.994;2023-01-28T00:04:09;37.37;;;24.33;;
17482;SDS011;8858;52.308;20.994;2023-01-28T00:06:37;33.27;;;22.43;;
17482;SDS011;8858;52.308;20.994;2023-01-28T00:09:06;33.53;;;22.77;;
17482;SDS011;8858;52.308;20.994;2023-01-28T00:11:36;35.53;;;22.83;;
17482;SDS011;8858;52.308;20.994;2023-01-28T00:14:05;32.73;;;21.70;;
17482;SDS011;8858;52.308;20.994;2023-01-28T00:16:33;31.77;;;22.53;;
17482;SDS011;8858;52.308;20.994;2023-01-28T00:19:03;33.33;;;23.47;;
17482;SDS011;8858;52.308;20.994;2023-01-28T00:21:31;31.90;;;22.50;;
17482;SDS011;8858;52.308;20.994;2023-01-28T00:24:02;32.27;;;22.03;;
17482;SDS011;8858;52.308;20.994;2023-01-28T00:26:32;29.77;;;21.27;;
17482;SDS011;8858;52.308;20.994;2023-01-28T00:29:00;29.80;;;20.87;;
17482;SDS011;8858;52.308;20.994;2023-01-28T00:31:28;29.77;;;21.53;;
17482;SDS011;8858;52.308;20.994;2023-01-28T00:33:58;31.60;;;21.47;;
17482;SDS011;8858;52.308;20.994;2023-01-28T00:36:32;30.57;;;20.73;;
17482;SDS011;8858;52.308;20.994;2023-01-28T00:39:05;29.37;;;21.27;;
17482;SDS011;8858;52.308;20.994;2023-01-28T00:41:35;33.13;;;20.53;;
17482;SDS011;8858;52.308;20.994;2023-01-28T00:44:03;28.00;;;20.17;;
17482;SDS011;8858;52.308;20.994;2023-01-28T00:46:31;26.93;;;20.23;;
17482;SDS011;8858;52.308;20.994;2023-01-28T00:49:01;26.63;;;20.30;;
17482;SDS011;8858;52.308;20.994;2023-01-28T00:51:31;26.67;;;19.50;;
17482;SDS011;8858;52.308;20.994;2023-01-28T00:54:03;27.90;;;19.90;;
17482;SDS011;8858;52.308;20.994;2023-01-28T00:56:32;30.37;;;20.13;;
17482;SDS011;8858;52.308;20.994;2023-01-28T00:59:04;27.77;;;19.40;;
17482;SDS011;8858;52.308;20.994;2023-01-28T01:01:33;26.90;;;19.47;;
17482;SDS011;8858;52.308;20.994;2023-01-28T01:04:01;23.27;;;18.60;;
17482;SDS011;8858;52.308;20.994;2023-01-28T01:06:30;25.80;;;18.67;;
17482;SDS011;8858;52.308;20.994;2023-01-28T01:09:01;25.87;;;18.37;;
17482;SDS011;8858;52.308;20.994;2023-01-28T01:11:33;26.23;;;18.53;;
17482;SDS011;8858;52.308;20.994;2023-01-28T01:14:05;26.50;;;19.17;;
17482;SDS011;8858;52.308;20.994;2023-01-28T01:16:34;25.23;;;17.90;;
17482;SDS011;8858;52.308;20.994;2023-01-28T01:19:04;22.13;;;17.33;;
17482;SDS011;8858;52.308;20.994;2023-01-28T01:21:35;23.00;;;18.33;;
17482;SDS011;8858;52.308;20.994;2023-01-28T01:24:04;23.07;;;17.80;;
17482;SDS011;8858;52.308;20.994;2023-01-28T01:26:32;22.73;;;17.03;;
17482;SDS011;8858;52.308;20.994;2023-01-28T01:29:01;22.53;;;17.63;;
17482;SDS011;8858;52.308;20.994;2023-01-28T01:31:32;21.93;;;17.20;;
17482;SDS011;8858;52.308;20.994;2023-01-28T01:34:01;25.23;;;18.50;;
17482;SDS011;8858;52.308;20.994;2023-01-28T01:36:30;24.40;;;18.47;;
17482;SDS011;8858;52.308;20.994;2023-01-28T01:39:04;30.17;;;20.50;;
17482;SDS011;8858;52.308;20.994;2023-01-28T01:41:32;28.87;;;20.60;;
17482;SDS011;8858;52.308;20.994;2023-01-28T01:44:02;28.03;;;19.47;;
17482;SDS011;8858;52.308;20.994;2023-01-28T01:46:33;26.07;;;18.00;;
17482;SDS011;8858;52.308;20.994;2023-01-28T01:49:12;23.40;;;18.03;;
17482;SDS011;8858;52.308;20.994;2023-01-28T01:51:46;21.70;;;16.77;;
17482;SDS011;8858;52.308;20.994;2023-01-28T01:54:22;23.40;;;17.43;;
17482;SDS011;8858;52.308;20.994;2023-01-28T01:56:55;23.23;;;16.80;;
17482;SDS011;8858;52.308;20.994;2023-01-28T01:59:26;22.03;;;16.70;;
17482;SDS011;8858;52.308;20.994;2023-01-28T02:01:57;20.50;;;15.93;;
17482;SDS011;8858;52.308;20.994;2023-01-28T02:04:31;19.07;;;14.63;;
17482;SDS011;8858;52.308;20.994;2023-01-28T02:07:02;23.83;;;16.47;;
17482;SDS011;8858;52.308;20.994;2023-01-28T02:09:35;25.47;;;17.57;;
17482;SDS011;8858;52.308;20.994;2023-01-28T02:12:07;21.03;;;16.43;;
17482;SDS011;8858;52.308;20.994;2023-01-28T02:14:41;22.70;;;16.43;;
17482;SDS011;8858;52.308;20.994;2023-01-28T02:17:13;21.13;;;15.80;;
17482;SDS011;8858;52.308;20.994;2023-01-28T02:19:43;19.47;;;14.97;;
17482;SDS011;8858;52.308;20.994;2023-01-28T02:22:26;18.20;;;14.97;;
17482;SDS011;8858;52.308;20.994;2023-01-28T02:25:21;20.83;;;15.57;;
17482;SDS011;8858;52.308;20.994;2023-01-28T02:28:07;17.70;;;14.77;;
17482;SDS011;8858;52.308;20.994;2023-01-28T02:30:41;21.13;;;15.07;;
17482;SDS011;8858;52.308;20.994;2023-01-28T02:33:17;21.83;;;14.77;;
17482;SDS011;8858;52.308;20.994;2023-01-28T02:35:52;19.03;;;14.70;;
17482;SDS011;8858;52.308;20.994;2023-01-28T02:38:23;19.30;;;15.00;;
17482;SDS011;8858;52.308;20.994;2023-01-28T02:40:58;18.00;;;14.50;;
17482;SDS011;8858;52.308;20.994;2023-01-28T02:43:37;22.67;;;15.57;;
17482;SDS011;8858;52.308;20.994;2023-01-28T02:46:12;20.67;;;15.50;;
17482;SDS011;8858;52.308;20.994;2023-01-28T02:48:56;20.17;;;14.73;;
17482;SDS011;8858;52.308;20.994;2023-01-28T02:51:30;19.60;;;15.10;;
17482;SDS011;8858;52.308;20.994;2023-01-28T02:54:09;20.93;;;14.53;;
17482;SDS011;8858;52.308;20.994;2023-01-28T02:56:41;17.73;;;14.43;;
17482;SDS011;8858;52.308;20.994;2023-01-28T02:59:22;18.47;;;14.40;;
17482;SDS011;8858;52.308;20.994;2023-01-28T03:02:01;19.77;;;14.10;;
17482;SDS011;8858;52.308;20.994;2023-01-28T03:04:41;19.97;;;14.47;;
17482;SDS011;8858;52.308;20.994;2023-01-28T03:07:16;21.27;;;15.47;;
17482;SDS011;8858;52.308;20.994;2023-01-28T03:09:48;18.77;;;14.37;;
17482;SDS011;8858;52.308;20.994;2023-01-28T03:12:19;20.73;;;14.13;;
17482;SDS011;8858;52.308;20.994;2023-01-28T03:15:07;17.77;;;14.30;;
17482;SDS011;8858;52.308;20.994;2023-01-28T03:17:51;19.60;;;15.03;;
17482;SDS011;8858;52.308;20.994;2023-01-28T03:20:37;19.10;;;14.47;;
17482;SDS011;8858;52.308;20.994;2023-01-28T03:23:26;18.03;;;14.17;;
17482;SDS011;8858;52.308;20.994;2023-01-28T03:26:09;18.77;;;14.60;;
17482;SDS011;8858;52.308;20.994;2023-01-28T03:28:51;18.43;;;14.33;;
17482;SDS011;8858;52.308;20.994;2023-01-28T03:31:40;20.70;;;15.00;;
17482;SDS011;8858;52.308;20.994;2023-01-28T03:34:22;23.47;;;15.07;;
17482;SDS011;8858;52.308;20.994;2023-01-28T03:37:04;19.70;;;14.30;;
17482;SDS011;8858;52.308;20.994;2023-01-28T03:39:42;21.23;;;15.17;;
17482;SDS011;8858;52.308;20.994;2023-01-28T03:42:13;20.63;;;15.20;;
17482;SDS011;8858;52.308;20.994;2023-01-28T03:44:56;22.40;;;15.93;;
17482;SDS011;8858;52.308;20.994;2023-01-28T03:47:28;21.50;;;15.67;;
17482;SDS011;8858;52.308;20.994;2023-01-28T03:50:00;22.07;;;16.53;;
17482;SDS011;8858;52.308;20.994;2023-01-28T03:52:40;24.90;;;16.53;;
17482;SDS011;8858;52.308;20.994;2023-01-28T03:55:20;19.33;;;15.27;;
17482;SDS011;8858;52.308;20.994;2023-01-28T03:57:51;21.80;;;15.30;;
17482;SDS011;8858;52.308;20.994;2023-01-28T04:00:24;20.53;;;15.27;;
17482;SDS011;8858;52.308;20.994;2023-01-28T04:02:55;21.47;;;15.80;;
17482;SDS011;8858;52.308;20.994;2023-01-28T04:05:24;22.57;;;15.67;;
17482;SDS011;8858;52.308;20.994;2023-01-28T04:07:57;22.83;;;15.77;;
17482;SDS011;8858;52.308;20.994;2023-01-28T04:10:33;19.97;;;14.73;;
17482;SDS011;8858;52.308;20.994;2023-01-28T04:13:07;19.87;;;14.83;;
17482;SDS011;8858;52.308;20.994;2023-01-28T04:15:39;19.50;;;14.87;;
17482;SDS011;8858;52.308;20.994;2023-01-28T04:18:11;20.27;;;15.27;;
17482;SDS011;8858;52.308;20.994;2023-01-28T04:20:41;19.30;;;14.50;;
17482;SDS011;8858;52.308;20.994;2023-01-28T04:23:09;18.93;;;14.47;;
17482;SDS011;8858;52.308;20.994;2023-01-28T04:25:37;18.93;;;15.00;;
17482;SDS011;8858;52.308;20.994;2023-01-28T04:28:07;20.40;;;14.63;;
17482;SDS011;8858;52.308;20.994;2023-01-28T04:30:39;18.67;;;14.83;;
17482;SDS011;8858;52.308;20.994;2023-01-28T04:33:14;18.67;;;14.37;;
17482;SDS011;8858;52.308;20.994;2023-01-28T04:35:56;19.23;;;14.53;;
17482;SDS011;8858;52.308;20.994;2023-01-28T04:38:38;19.73;;;14.33;;
17482;SDS011;8858;52.308;20.994;2023-01-28T04:41:22;19.23;;;14.27;;
17482;SDS011;8858;52.308;20.994;2023-01-28T04:43:50;19.30;;;14.83;;
17482;SDS011;8858;52.308;20.994;2023-01-28T04:46:35;19.47;;;14.50;;
17482;SDS011;8858;52.308;20.994;2023-01-28T04:49:13;20.20;;;14.43;;
17482;SDS011;8858;52.308;20.994;2023-01-28T04:51:50;21.47;;;14.93;;
17482;SDS011;8858;52.308;20.994;2023-01-28T04:54:29;21.27;;;15.03;;
17482;SDS011;8858;52.308;20.994;2023-01-28T04:57:02;19.20;;;14.27;;
17482;SDS011;8858;52.308;20.994;2023-01-28T04:59:33;23.53;;;14.93;;
17482;SDS011;8858;52.308;20.994;2023-01-28T05:02:01;21.67;;;15.43;;
17482;SDS011;8858;52.308;20.994;2023-01-28T05:04:32;20.53;;;14.70;;
17482;SDS011;8858;52.308;20.994;2023-01-28T05:07:00;24.83;;;15.73;;
17482;SDS011;8858;52.308;20.994;2023-01-28T05:09:33;21.73;;;14.50;;
17482;SDS011;8858;52.308;20.994;2023-01-28T05:12:02;22.77;;;15.83;;
17482;SDS011;8858;52.308;20.994;2023-01-28T05:14:34;22.60;;;15.37;;
17482;SDS011;8858;52.308;20.994;2023-01-28T05:17:05;26.80;;;16.03;;
17482;SDS011;8858;52.308;20.994;2023-01-28T05:19:38;25.13;;;16.10;;
17482;SDS011;8858;52.308;20.994;2023-01-28T05:22:15;39.13;;;16.83;;
17482;SDS011;8858;52.308;20.994;2023-01-28T05:24:58;31.80;;;15.57;;
17482;SDS011;8858;52.308;20.994;2023-01-28T05:27:27;25.27;;;15.53;;
17482;SDS011;8858;52.308;20.994;2023-01-28T05:29:55;24.90;;;15.07;;
17482;SDS011;8858;52.308;20.994;2023-01-28T05:32:24;21.97;;;15.27;;
17482;SDS011;8858;52.308;20.994;2023-01-28T05:34:53;23.73;;;15.60;;
17482;SDS011;8858;52.308;20.994;2023-01-28T05:37:22;22.83;;;14.97;;
17482;SDS011;8858;52.308;20.994;2023-01-28T05:39:53;22.47;;;15.70;;
17482;SDS011;8858;52.308;20.994;2023-01-28T05:42:21;24.30;;;15.63;;
17482;SDS011;8858;52.308;20.994;2023-01-28T05:44:55;23.70;;;15.17;;
17482;SDS011;8858;52.308;20.994;2023-01-28T05:47:38;22.53;;;15.03;;
17482;SDS011;8858;52.308;20.994;2023-01-28T05:50:24;20.87;;;14.47;;
17482;SDS011;8858;52.308;20.994;2023-01-28T05:53:05;24.67;;;15.80;;
17482;SDS011;8858;52.308;20.994;2023-01-28T05:55:37;23.87;;;14.33;;
17482;SDS011;8858;52.308;20.994;2023-01-28T05:58:07;22.37;;;15.47;;
17482;SDS011;8858;52.308;20.994;2023-01-28T06:00:38;22.73;;;15.70;;
17482;SDS011;8858;52.308;20.994;2023-01-28T06:03:07;24.90;;;15.93;;
17482;SDS011;8858;52.308;20.994;2023-01-28T06:05:37;22.37;;;15.00;;
17482;SDS011;8858;52.308;20.994;2023-01-28T06:08:10;20.63;;;14.93;;
17482;SDS011;8858;52.308;20.994;2023-01-28T06:10:38;21.40;;;15.23;;
17482;SDS011;8858;52.308;20.994;2023-01-28T06:13:09;25.17;;;15.77;;
17482;SDS011;8858;52.308;20.994;2023-01-28T06:15:57;22.87;;;15.43;;
17482;SDS011;8858;52.308;20.994;2023-01-28T06:18:41;23.37;;;15.17;;
17482;SDS011;8858;52.308;20.994;2023-01-28T06:21:11;21.40;;;14.80;;
17482;SDS011;8858;52.308;20.994;2023-01-28T06:23:40;23.53;;;16.27;;
17482;SDS011;8858;52.308;20.994;2023-01-28T06:26:09;21.93;;;15.57;;
17482;SDS011;8858;52.308;20.994;2023-01-28T06:28:42;23.77;;;15.57;;
17482;SDS011;8858;52.308;20.994;2023-01-28T06:31:10;24.50;;;15.80;;
17482;SDS011;8858;52.308;20.994;2023-01-28T06:33:40;22.03;;;14.73;;
17482;SDS011;8858;52.308;20.994;2023-01-28T06:36:09;21.07;;;15.13;;
17482;SDS011;8858;52.308;20.994;2023-01-28T06:38:39;22.47;;;15.03;;
17482;SDS011;8858;52.308;20.994;2023-01-28T06:41:07;21.37;;;14.67;;
17482;SDS011;8858;52.308;20.994;2023-01-28T06:43:35;21.57;;;15.03;;
17482;SDS011;8858;52.308;20.994;2023-01-28T06:46:06;21.17;;;14.17;;
17482;SDS011;8858;52.308;20.994;2023-01-28T06:48:34;21.57;;;14.83;;
17482;SDS011;8858;52.308;20.994;2023-01-28T06:51:02;20.40;;;13.60;;
17482;SDS011;8858;52.308;20.994;2023-01-28T06:53:32;19.70;;;14.37;;
17482;SDS011;8858;52.308;20.994;2023-01-28T06:56:04;20.57;;;14.23;;
17482;SDS011;8858;52.308;20.994;2023-01-28T06:58:36;17.43;;;12.77;;
17482;SDS011;8858;52.308;20.994;2023-01-28T07:01:04;18.90;;;14.60;;
17482;SDS011;8858;52.308;20.994;2023-01-28T07:03:32;17.80;;;14.03;;
17482;SDS011;8858;52.308;20.994;2023-01-28T07:06:02;18.70;;;14.20;;
17482;SDS011;8858;52.308;20.994;2023-01-28T07:08:38;21.00;;;14.67;;
17482;SDS011;8858;52.308;20.994;2023-01-28T07:11:08;18.23;;;14.13;;
17482;SDS011;8858;52.308;20.994;2023-01-28T07:13:36;19.53;;;14.10;;
17482;SDS011;8858;52.308;20.994;2023-01-28T07:16:04;19.03;;;14.63;;
17482;SDS011;8858;52.308;20.994;2023-01-28T07:18:33;19.67;;;15.33;;
17482;SDS011;8858;52.308;20.994;2023-01-28T07:21:01;17.23;;;14.43;;
17482;SDS011;8858;52.308;20.994;2023-01-28T07:23:32;18.17;;;13.90;;
17482;SDS011;8858;52.308;20.994;2023-01-28T07:26:00;19.07;;;13.73;;
17482;SDS011;8858;52.308;20.994;2023-01-28T07:28:30;16.97;;;14.57;;
17482;SDS011;8858;52.308;20.994;2023-01-28T07:30:58;19.37;;;13.70;;
17482;SDS011;8858;52.308;20.994;2023-01-28T07:33:27;19.37;;;14.43;;
17482;SDS011;8858;52.308;20.994;2023-01-28T07:35:55;19.10;;;14.07;;
17482;SDS011;8858;52.308;20.994;2023-01-28T07:38:23;19.63;;;14.10;;
17482;SDS011;8858;52.308;20.994;2023-01-28T07:40:52;17.23;;;14.07;;
17482;SDS011;8858;52.308;20.994;2023-01-28T07:43:20;20.27;;;14.97;;
17482;SDS011;8858;52.308;20.994;2023-01-28T07:45:50;19.83;;;15.60;;
17482;SDS011;8858;52.308;20.994;2023-01-28T07:48:18;17.40;;;14.17;;
17482;SDS011;8858;52.308;20.994;2023-01-28T07:50:46;18.00;;;14.30;;
17482;SDS011;8858;52.308;20.994;2023-01-28T07:53:16;20.47;;;14.90;;
17482;SDS011;8858;52.308;20.994;2023-01-28T07:55:45;18.90;;;14.30;;
17482;SDS011;8858;52.308;20.994;2023-01-28T07:58:17;16.67;;;13.63;;
17482;SDS011;8858;52.308;20.994;2023-01-28T08:00:45;19.60;;;15.30;;
17482;SDS011;8858;52.308;20.994;2023-01-28T08:03:15;18.67;;;15.37;;
17482;SDS011;8858;52.308;20.994;2023-01-28T08:05:44;19.37;;;15.13;;
17482;SDS011;8858;52.308;20.994;2023-01-28T08:08:14;17.57;;;14.53;;
17482;SDS011;8858;52.308;20.994;2023-01-28T08:10:46;17.63;;;14.60;;
17482;SDS011;8858;52.308;20.994;2023-01-28T08:13:15;16.63;;;13.77;;
17482;SDS011;8858;52.308;20.994;2023-01-28T08:15:44;16.57;;;13.00;;
17482;SDS011;8858;52.308;20.994;2023-01-28T08:18:13;15.50;;;13.50;;
17482;SDS011;8858;52.308;20.994;2023-01-28T08:20:47;16.67;;;14.33;;
17482;SDS011;8858;52.308;20.994;2023-01-28T08:23:16;18.10;;;14.30;;
17482;SDS011;8858;52.308;20.994;2023-01-28T08:25:51;16.47;;;13.83;;
17482;SDS011;8858;52.308;20.994;2023-01-28T08:28:23;17.00;;;13.70;;
17482;SDS011;8858;52.308;20.994;2023-01-28T08:30:52;16.53;;;14.43;;
17482;SDS011;8858;52.308;20.994;2023-01-28T08:33:21;16.93;;;13.90;;
17482;SDS011;8858;52.308;20.994;2023-01-28T08:35:50;19.57;;;14.73;;
17482;SDS011;8858;52.308;20.994;2023-01-28T08:38:21;17.00;;;13.43;;
17482;SDS011;8858;52.308;20.994;2023-01-28T08:40:50;25.13;;;19.93;;
17482;SDS011;8858;52.308;20.994;2023-01-28T08:43:21;34.47;;;24.37;;
17482;SDS011;8858;52.308;20.994;2023-01-28T08:45:49;19.10;;;15.23;;
17482;SDS011;8858;52.308;20.994;2023-01-28T08:48:18;17.53;;;14.33;;
17482;SDS011;8858;52.308;20.994;2023-01-28T08:50:51;17.27;;;14.67;;
17482;SDS011;8858;52.308;20.994;2023-01-28T08:53:20;18.57;;;14.67;;
17482;SDS011;8858;52.308;20.994;2023-01-28T08:55:48;18.47;;;14.73;;
17482;SDS011;8858;52.308;20.994;2023-01-28T08:58:17;16.30;;;14.53;;
17482;SDS011;8858;52.308;20.994;2023-01-28T09:00:45;16.20;;;14.30;;
17482;SDS011;8858;52.308;20.994;2023-01-28T09:03:17;17.60;;;14.23;;
17482;SDS011;8858;52.308;20.994;2023-01-28T09:05:48;16.13;;;14.30;;
17482;SDS011;8858;52.308;20.994;2023-01-28T09:08:19;17.73;;;14.63;;
17482;SDS011;8858;52.308;20.994;2023-01-28T09:10:53;17.93;;;14.73;;
17482;SDS011;8858;52.308;20.994;2023-01-28T09:13:22;17.07;;;14.50;;
17482;SDS011;8858;52.308;20.994;2023-01-28T09:15:51;17.03;;;13.97;;
17482;SDS011;8858;52.308;20.994;2023-01-28T09:18:20;17.17;;;14.07;;
17482;SDS011;8858;52.308;20.994;2023-01-28T09:20:51;17.73;;;14.37;;
17482;SDS011;8858;52.308;20.994;2023-01-28T09:23:23;17.10;;;14.30;;
17482;SDS011;8858;52.308;20.994;2023-01-28T09:25:58;17.27;;;14.63;;
17482;SDS011;8858;52.308;20.994;2023-01-28T09:28:30;40.27;;;29.20;;
17482;SDS011;8858;52.308;20.994;2023-01-28T09:31:00;22.77;;;18.10;;
17482;SDS011;8858;52.308;20.994;2023-01-28T09:33:29;19.33;;;15.67;;
17482;SDS011;8858;52.308;20.994;2023-01-28T09:35:59;18.30;;;14.80;;
17482;SDS011;8858;52.308;20.994;2023-01-28T09:38:33;16.30;;;13.80;;
17482;SDS011;8858;52.308;20.994;2023-01-28T09:41:02;16.57;;;14.60;;
17482;SDS011;8858;52.308;20.994;2023-01-28T09:46:52;17.33;;;13.77;;
17482;SDS011;8858;52.308;20.994;2023-01-28T09:49:22;17.60;;;14.10;;
17482;SDS011;8858;52.308;20.994;2023-01-28T09:52:00;15.73;;;14.03;;
17482;SDS011;8858;52.308;20.994;2023-01-28T09:54:33;17.73;;;15.20;;
17482;SDS011;8858;52.308;20.994;2023-01-28T09:57:11;16.57;;;14.30;;
17482;SDS011;8858;52.308;20.994;2023-01-28T09:59:46;15.83;;;13.40;;
17482;SDS011;8858;52.308;20.994;2023-01-28T10:02:20;16.03;;;13.97;;
17482;SDS011;8858;52.308;20.994;2023-01-28T10:05:15;15.33;;;13.73;;
17482;SDS011;8858;52.308;20.994;2023-01-28T10:07:51;15.53;;;13.93;;
17482;SDS011;8858;52.308;20.994;2023-01-28T10:10:31;17.00;;;14.57;;
17482;SDS011;8858;52.308;20.994;2023-01-28T10:13:11;18.80;;;15.70;;
17482;SDS011;8858;52.308;20.994;2023-01-28T10:15:53;17.93;;;14.80;;
17482;SDS011;8858;52.308;20.994;2023-01-28T10:18:33;17.23;;;14.87;;
17482;SDS011;8858;52.308;20.994;2023-01-28T10:21:07;16.30;;;14.60;;
17482;SDS011;8858;52.308;20.994;2023-01-28T10:23:48;17.90;;;13.97;;
17482;SDS011;8858;52.308;20.994;2023-01-28T10:26:29;16.80;;;14.37;;
17482;SDS011;8858;52.308;20.994;2023-01-28T10:29:09;18.27;;;14.27;;
17482;SDS011;8858;52.308;20.994;2023-01-28T10:31:43;18.13;;;15.40;;
17482;SDS011;8858;52.308;20.994;2023-01-28T10:34:20;17.63;;;14.63;;
17482;SDS011;8858;52.308;20.994;2023-01-28T10:36:50;16.20;;;14.43;;
17482;SDS011;8858;52.308;20.994;2023-01-28T10:39:26;19.93;;;14.37;;
17482;SDS011;8858;52.308;20.994;2023-01-28T10:41:57;17.33;;;14.63;;
17482;SDS011;8858;52.308;20.994;2023-01-28T10:44:29;27.87;;;22.70;;
17482;SDS011;8858;52.308;20.994;2023-01-28T10:47:02;34.93;;;24.93;;
17482;SDS011;8858;52.308;20.994;2023-01-28T10:49:40;18.87;;;15.90;;
17482;SDS011;8858;52.308;20.994;2023-01-28T10:52:12;18.80;;;15.47;;
17482;SDS011;8858;52.308;20.994;2023-01-28T10:54:46;17.47;;;15.60;;
17482;SDS011;8858;52.308;20.994;2023-01-28T10:57:17;18.00;;;15.47;;
17482;SDS011;8858;52.308;20.994;2023-01-28T10:59:46;16.23;;;14.43;;
17482;SDS011;8858;52.308;20.994;2023-01-28T11:02:24;17.10;;;15.30;;
17482;SDS011;8858;52.308;20.994;2023-01-28T11:05:03;17.70;;;15.40;;
17482;SDS011;8858;52.308;20.994;2023-01-28T11:07:33;17.23;;;15.40;;
17482;SDS011;8858;52.308;20.994;2023-01-28T11:10:02;18.00;;;14.83;;
17482;SDS011;8858;52.308;20.994;2023-01-28T11:12:55;17.37;;;15.27;;
17482;SDS011;8858;52.308;20.994;2023-01-28T11:15:24;17.53;;;15.33;;
17482;SDS011;8858;52.308;20.994;2023-01-28T11:17:55;18.27;;;15.87;;
17482;SDS011;8858;52.308;20.994;2023-01-28T11:20:30;17.97;;;15.50;;
17482;SDS011;8858;52.308;20.994;2023-01-28T11:23:04;17.43;;;15.37;;
17482;SDS011;8858;52.308;20.994;2023-01-28T11:25:36;17.93;;;15.13;;
17482;SDS011;8858;52.308;20.994;2023-01-28T11:28:07;17.83;;;15.10;;
17482;SDS011;8858;52.308;20.994;2023-01-28T11:30:48;19.23;;;16.63;;
17482;SDS011;8858;52.308;20.994;2023-01-28T11:33:20;44.37;;;34.23;;
17482;SDS011;8858;52.308;20.994;2023-01-28T11:35:53;17.80;;;15.93;;
17482;SDS011;8858;52.308;20.994;2023-01-28T11:38:23;17.23;;;15.20;;
17482;SDS011;8858;52.308;20.994;2023-01-28T11:40:53;17.37;;;15.30;;
17482;SDS011;8858;52.308;20.994;2023-01-28T11:43:28;17.00;;;15.17;;
17482;SDS011;8858;52.308;20.994;2023-01-28T11:46:01;27.47;;;23.03;;
17482;SDS011;8858;52.308;20.994;2023-01-28T11:48:44;17.47;;;15.57;;
17482;SDS011;8858;52.308;20.994;2023-01-28T11:51:23;19.40;;;15.77;;
17482;SDS011;8858;52.308;20.994;2023-01-28T11:54:01;17.43;;;15.33;;
17482;SDS011;8858;52.308;20.994;2023-01-28T11:57:01;18.07;;;15.30;;
17482;SDS011;8858;52.308;20.994;2023-01-28T11:59:55;19.87;;;16.03;;
17482;SDS011;8858;52.308;20.994;2023-01-28T12:05:20;16.93;;;15.00;;
17482;SDS011;8858;52.308;20.994;2023-01-28T12:08:01;19.00;;;15.93;;
17482;SDS011;8858;52.308;20.994;2023-01-28T12:10:37;17.30;;;15.40;;
17482;SDS011;8858;52.308;20.994;2023-01-28T12:13:19;17.37;;;15.13;;
17482;SDS011;8858;52.308;20.994;2023-01-28T12:16:06;16.83;;;15.13;;
17482;SDS011;8858;52.308;20.994;2023-01-28T12:18:56;16.60;;;14.77;;
17482;SDS011;8858;52.308;20.994;2023-01-28T12:21:40;18.80;;;16.13;;
17482;SDS011;8858;52.308;20.994;2023-01-28T12:24:21;20.60;;;15.57;;
17482;SDS011;8858;52.308;20.994;2023-01-28T12:27:03;22.70;;;15.17;;
17482;SDS011;8858;52.308;20.994;2023-01-28T12:29:43;19.97;;;15.80;;
17482;SDS011;8858;52.308;20.994;2023-01-28T12:32:25;23.57;;;18.20;;
17482;SDS011;8858;52.308;20.994;2023-01-28T12:35:15;25.20;;;20.53;;
17482;SDS011;8858;52.308;20.994;2023-01-28T12:37:59;23.97;;;17.87;;
17482;SDS011;8858;52.308;20.994;2023-01-28T12:43:42;19.07;;;16.77;;
17482;SDS011;8858;52.308;20.994;2023-01-28T12:46:28;19.57;;;15.53;;
17482;SDS011;8858;52.308;20.994;2023-01-28T12:49:08;18.57;;;15.83;;
17482;SDS011;8858;52.308;20.994;2023-01-28T12:51:53;17.93;;;15.70;;
17482;SDS011;8858;52.308;20.994;2023-01-28T12:54:27;19.07;;;15.67;;
17482;SDS011;8858;52.308;20.994;2023-01-28T12:57:01;19.33;;;15.73;;
17482;SDS011;8858;52.308;20.994;2023-01-28T12:59:31;20.67;;;16.47;;
17482;SDS011;8858;52.308;20.994;2023-01-28T13:02:13;18.70;;;16.30;;
17482;SDS011;8858;52.308;20.994;2023-01-28T13:04:53;19.37;;;15.50;;
17482;SDS011;8858;52.308;20.994;2023-01-28T13:07:34;19.73;;;15.20;;
17482;SDS011;8858;52.308;20.994;2023-01-28T13:10:10;18.40;;;16.13;;
17482;SDS011;8858;52.308;20.994;2023-01-28T13:12:45;20.97;;;17.93;;
17482;SDS011;8858;52.308;20.994;2023-01-28T13:15:16;19.83;;;15.73;;
17482;SDS011;8858;52.308;20.994;2023-01-28T13:17:53;19.17;;;16.07;;
17482;SDS011;8858;52.308;20.994;2023-01-28T13:20:28;20.77;;;16.67;;
17482;SDS011;8858;52.308;20.994;2023-01-28T13:23:04;18.53;;;14.73;;
17482;SDS011;8858;52.308;20.994;2023-01-28T13:25:53;20.47;;;16.67;;
17482;SDS011;8858;52.308;20.994;2023-01-28T13:28:26;25.10;;;20.30;;
17482;SDS011;8858;52.308;20.994;2023-01-28T13:31:01;25.60;;;21.00;;
17482;SDS011;8858;52.308;20.994;2023-01-28T13:33:32;22.00;;;19.03;;
17482;SDS011;8858;52.308;20.994;2023-01-28T13:36:02;21.30;;;18.33;;
17482;SDS011;8858;52.308;20.994;2023-01-28T13:38:47;21.90;;;18.20;;
17482;SDS011;8858;52.308;20.994;2023-01-28T13:41:37;23.77;;;18.17;;
17482;SDS011;8858;52.308;20.994;2023-01-28T13:44:25;21.33;;;18.27;;
17482;SDS011;8858;52.308;20.994;2023-01-28T13:46:56;20.53;;;16.90;;
17482;SDS011;8858;52.308;20.994;2023-01-28T13:49:27;20.87;;;16.33;;
17482;SDS011;8858;52.308;20.994;2023-01-28T13:52:06;21.07;;;17.30;;
17482;SDS011;8858;52.308;20.994;2023-01-28T13:54:47;33.17;;;24.63;;
17482;SDS011;8858;52.308;20.994;2023-01-28T14:00:46;19.87;;;17.63;;
17482;SDS011;8858;52.308;20.994;2023-01-28T14:09:47;22.57;;;17.27;;
17482;SDS011;8858;52.308;20.994;2023-01-28T14:12:48;21.10;;;17.27;;
17482;SDS011;8858;52.308;20.994;2023-01-28T14:18:25;19.50;;;16.77;;
17482;SDS011;8858;52.308;20.994;2023-01-28T14:20:58;20.80;;;17.20;;
17482;SDS011;8858;52.308;20.994;2023-01-28T14:23:28;22.43;;;17.53;;
17482;SDS011;8858;52.308;20.994;2023-01-28T14:26:02;21.60;;;17.20;;
17482;SDS011;8858;52.308;20.994;2023-01-28T14:28:42;20.90;;;16.37;;
17482;SDS011;8858;52.308;20.994;2023-01-28T14:31:21;22.00;;;17.83;;
17482;SDS011;8858;52.308;20.994;2023-01-28T14:33:54;20.33;;;16.77;;
17482;SDS011;8858;52.308;20.994;2023-01-28T14:36:34;20.63;;;17.47;;
17482;SDS011;8858;52.308;20.994;2023-01-28T14:39:05;18.33;;;16.17;;
17482;SDS011;8858;52.308;20.994;2023-01-28T14:41:43;22.50;;;17.67;;
17482;SDS011;8858;52.308;20.994;2023-01-28T14:44:19;23.10;;;18.50;;
17482;SDS011;8858;52.308;20.994;2023-01-28T14:46:59;22.33;;;17.77;;
17482;SDS011;8858;52.308;20.994;2023-01-28T14:49:44;21.13;;;17.67;;
17482;SDS011;8858;52.308;20.994;2023-01-28T14:52:32;22.57;;;18.47;;
17482;SDS011;8858;52.308;20.994;2023-01-28T14:55:27;24.87;;;19.50;;
17482;SDS011;8858;52.308;20.994;2023-01-28T14:58:05;24.57;;;20.60;;
17482;SDS011;8858;52.308;20.994;2023-01-28T15:00:38;29.50;;;24.37;;
17482;SDS011;8858;52.308;20.994;2023-01-28T15:03:13;27.97;;;22.40;;
17482;SDS011;8858;52.308;20.994;2023-01-28T15:06:02;25.57;;;21.17;;
17482;SDS011;8858;52.308;20.994;2023-01-28T15:08:35;27.90;;;20.03;;
17482;SDS011;8858;52.308;20.994;2023-01-28T15:11:06;20.70;;;17.67;;
17482;SDS011;8858;52.308;20.994;2023-01-28T15:13:37;22.43;;;18.57;;
17482;SDS011;8858;52.308;20.994;2023-01-28T15:16:13;25.53;;;21.30;;
17482;SDS011;8858;52.308;20.994;2023-01-28T15:18:45;23.97;;;19.37;;
17482;SDS011;8858;52.308;20.994;2023-01-28T15:21:18;23.03;;;18.40;;
17482;SDS011;8858;52.308;20.994;2023-01-28T15:23:48;33.43;;;22.83;;